createdAt,value
2022-10-31T00:01:13.082Z,0.08
2022-10-31T00:03:10.743Z,0.08
2022-10-31T00:05:08.960Z,0.08
2022-10-31T00:07:09.552Z,0.08
2022-10-31T00:09:09.319Z,0.08
2022-10-31T00:11:09.314Z,0.08
2022-10-31T00:13:10.105Z,0.08
2022-10-31T00:15:09.317Z,0.08
2022-10-31T00:17:09.855Z,0.08
2022-10-31T00:19:10.287Z,0.08
2022-10-31T00:21:09.509Z,0.08
2022-10-31T00:23:09.631Z,0.08
2022-10-31T00:25:08.768Z,0.08
2022-10-31T00:27:08.684Z,0.08
2022-10-31T00:29:09.933Z,0.08
2022-10-31T00:31:09.711Z,0.08
2022-10-31T00:33:09.605Z,0.08
2022-10-31T00:35:09.617Z,0.08
2022-10-31T00:37:08.866Z,0.08
2022-10-31T00:39:08.791Z,0.08
2022-10-31T00:41:08.852Z,0.08
2022-10-31T00:45:08.812Z,0.08
2022-10-31T00:47:09.109Z,0.08
2022-10-31T00:49:09.764Z,0.08
2022-10-31T00:51:09.128Z,0.08
2022-10-31T00:53:08.816Z,0.08
2022-10-31T00:55:09.460Z,0.08
2022-10-31T00:57:09.701Z,0.08
2022-10-31T00:59:11.257Z,0.08
2022-10-31T01:01:14.868Z,0.08
2022-10-31T01:03:11.389Z,0.08
2022-10-31T01:05:09.024Z,0.08
2022-10-31T01:07:08.744Z,0.08
2022-10-31T01:09:08.861Z,0.08
2022-10-31T01:11:09.308Z,0.08
2022-10-31T01:13:10.139Z,0.08
2022-10-31T01:15:09.074Z,0.08
2022-10-31T01:17:08.869Z,0.08
2022-10-31T01:19:10.036Z,0.08
2022-10-31T01:21:09.564Z,0.08
2022-10-31T01:23:08.982Z,0.08
2022-10-31T01:25:09.335Z,0.08
2022-10-31T01:27:08.896Z,0.08
2022-10-31T01:29:10.737Z,0.08
2022-10-31T01:31:09.052Z,0.08
2022-10-31T01:33:09.814Z,0.08
2022-10-31T01:35:09.599Z,0.08
2022-10-31T01:37:09.171Z,0.08
2022-10-31T01:39:08.779Z,0.08
2022-10-31T01:41:09.340Z,0.08
2022-10-31T01:43:09.888Z,0.08
2022-10-31T01:45:09.037Z,0.08
2022-10-31T01:47:09.623Z,0.08
2022-10-31T01:49:10.325Z,0.08
2022-10-31T01:51:09.524Z,0.08
2022-10-31T01:53:08.889Z,0.08
2022-10-31T01:55:09.305Z,0.08
2022-10-31T01:57:09.659Z,0.08
2022-10-31T01:59:09.839Z,0.08
2022-10-31T02:01:19.274Z,0.08
2022-10-31T02:03:11.183Z,0.08
2022-10-31T02:05:09.016Z,0.08
2022-10-31T02:07:09.496Z,0.08
2022-10-31T02:09:09.533Z,0.08
2022-10-31T02:11:09.088Z,0.08
2022-10-31T02:13:09.638Z,0.08
2022-10-31T02:15:09.779Z,0.08
2022-10-31T02:17:08.782Z,0.08
2022-10-31T02:19:09.588Z,0.08
2022-10-31T02:21:09.567Z,0.08
2022-10-31T02:23:08.972Z,0.08
2022-10-31T02:25:09.436Z,0.08
2022-10-31T02:27:09.284Z,0.08
2022-10-31T02:29:10.183Z,0.08
2022-10-31T02:31:09.728Z,0.08
2022-10-31T02:33:10.197Z,0.08
2022-10-31T02:35:09.633Z,0.08
2022-10-31T02:37:09.485Z,0.08
2022-10-31T02:39:09.738Z,0.08
2022-10-31T02:41:08.975Z,0.08
2022-10-31T02:43:09.833Z,0.08
2022-10-31T02:45:09.499Z,0.08
2022-10-31T02:47:09.228Z,0.08
2022-10-31T02:49:09.496Z,0.08
2022-10-31T02:51:09.269Z,0.08
2022-10-31T02:53:09.083Z,0.08
2022-10-31T02:55:09.355Z,0.08
2022-10-31T02:57:08.905Z,0.08
2022-10-31T02:59:10.349Z,0.08
2022-10-31T03:01:15.326Z,0.08
2022-10-31T03:03:10.539Z,0.08
2022-10-31T03:05:09.730Z,0.08
2022-10-31T03:07:09.655Z,0.08
2022-10-31T03:09:09.261Z,0.08
2022-10-31T03:11:09.019Z,0.08
2022-10-31T03:13:11.986Z,0.08
2022-10-31T03:15:08.893Z,0.08
2022-10-31T03:17:09.214Z,0.08
2022-10-31T03:19:10.270Z,0.08
2022-10-31T03:21:09.765Z,0.08
2022-10-31T03:23:08.851Z,0.08
2022-10-31T03:25:09.180Z,0.08
2022-10-31T03:27:09.532Z,0.08
2022-10-31T03:29:09.733Z,0.08
2022-10-31T03:31:08.767Z,0.08
2022-10-31T03:33:09.930Z,0.08
2022-10-31T03:35:08.890Z,0.08
2022-10-31T03:37:09.513Z,0.08
2022-10-31T03:39:15.229Z,0.08
2022-10-31T03:41:09.341Z,0.08
2022-10-31T03:43:10.168Z,0.08
2022-10-31T03:45:08.926Z,0.08
2022-10-31T03:47:09.692Z,0.08
2022-10-31T03:49:09.866Z,0.08
2022-10-31T03:51:09.682Z,0.08
2022-10-31T03:53:09.092Z,0.08
2022-10-31T03:55:08.887Z,0.08
2022-10-31T03:57:09.367Z,0.08
2022-10-31T03:59:09.928Z,0.08
2022-10-31T04:01:11.729Z,0.08
2022-10-31T04:03:11.270Z,0.08
2022-10-31T04:05:08.827Z,0.08
2022-10-31T04:07:09.386Z,0.08
2022-10-31T04:09:09.389Z,0.08
2022-10-31T04:11:17.059Z,0.08
2022-10-31T04:13:10.272Z,0.08
2022-10-31T04:15:08.937Z,0.08
2022-10-31T04:17:13.699Z,0.08
2022-10-31T04:19:09.627Z,0.08
2022-10-31T04:21:09.739Z,0.08
2022-10-31T04:23:13.814Z,0.08
2022-10-31T04:25:09.468Z,0.08
2022-10-31T04:27:09.256Z,0.08
2022-10-31T04:29:09.486Z,0.08
2022-10-31T04:31:09.189Z,0.08
2022-10-31T04:33:10.195Z,0.08
2022-10-31T04:35:09.780Z,0.08
2022-10-31T04:37:09.058Z,0.08
2022-10-31T04:39:09.034Z,0.08
2022-10-31T04:41:09.244Z,0.08
2022-10-31T04:43:10.225Z,0.08
2022-10-31T04:45:09.288Z,0.08
2022-10-31T04:47:08.936Z,0.08
2022-10-31T04:49:10.575Z,0.08
2022-10-31T04:51:09.242Z,0.08
2022-10-31T04:53:08.852Z,0.08
2022-10-31T04:55:09.494Z,0.08
2022-10-31T04:57:09.851Z,0.08
2022-10-31T04:59:10.374Z,0.08
2022-10-31T05:01:12.390Z,0.08
2022-10-31T05:03:15.909Z,0.08
2022-10-31T05:05:09.355Z,0.08
2022-10-31T05:07:09.159Z,0.08
2022-10-31T05:09:08.786Z,0.08
2022-10-31T05:11:15.575Z,0.08
2022-10-31T05:13:10.393Z,0.08
2022-10-31T05:15:11.391Z,0.08
2022-10-31T05:17:09.369Z,0.08
2022-10-31T05:19:09.546Z,0.08
2022-10-31T05:21:09.200Z,0.08
2022-10-31T05:23:09.323Z,0.08
2022-10-31T05:25:09.354Z,0.08
2022-10-31T05:27:09.262Z,0.08
2022-10-31T05:29:09.562Z,0.08
2022-10-31T05:31:09.834Z,0.08
2022-10-31T05:33:10.266Z,0.08
2022-10-31T05:35:09.289Z,0.08
2022-10-31T05:37:09.405Z,0.08
2022-10-31T05:39:09.123Z,0.08
2022-10-31T05:41:15.908Z,0.08
2022-10-31T05:43:09.923Z,0.08
2022-10-31T05:45:09.713Z,0.08
2022-10-31T05:47:08.724Z,0.08
2022-10-31T05:49:14.070Z,0.08
2022-10-31T05:51:09.719Z,0.08
2022-10-31T05:53:09.543Z,0.08
2022-10-31T05:55:12.512Z,0.08
2022-10-31T05:57:09.135Z,0.08
2022-10-31T05:59:09.491Z,0.08
2022-10-31T06:01:12.173Z,0.08
2022-10-31T06:05:10.228Z,0.08
2022-10-31T06:07:08.981Z,0.08
2022-10-31T06:09:10.197Z,0.08
2022-10-31T06:11:09.060Z,0.08
2022-10-31T06:13:09.763Z,0.08
2022-10-31T06:15:09.105Z,0.08
2022-10-31T06:17:09.525Z,0.08
2022-10-31T06:19:10.647Z,0.08
2022-10-31T06:21:10.756Z,0.08
2022-10-31T06:23:10.065Z,0.08
2022-10-31T06:25:08.830Z,0.08
2022-10-31T06:27:08.853Z,0.08
2022-10-31T06:29:15.462Z,0.08
2022-10-31T06:31:09.400Z,0.08
2022-10-31T06:33:09.635Z,0.08
2022-10-31T06:35:09.021Z,0.08
2022-10-31T06:37:09.969Z,0.08
2022-10-31T06:39:10.290Z,0.08
2022-10-31T06:41:09.343Z,0.08
2022-10-31T06:43:09.498Z,0.08
2022-10-31T06:45:15.533Z,0.08
2022-10-31T06:47:08.843Z,0.08
2022-10-31T06:49:25.000Z,0.08
2022-10-31T06:51:11.077Z,0.08
2022-10-31T06:55:09.322Z,0.08
2022-10-31T06:57:09.051Z,0.08
2022-10-31T06:59:11.022Z,0.08
2022-10-31T07:01:12.674Z,0.08
2022-10-31T07:03:10.140Z,0.08
2022-10-31T07:05:09.241Z,0.08
2022-10-31T07:07:14.493Z,0.08
2022-10-31T07:09:10.267Z,0.08
2022-10-31T07:11:14.383Z,0.08
2022-10-31T07:13:09.708Z,0.08
2022-10-31T07:15:09.486Z,0.08
2022-10-31T07:17:08.891Z,0.08
2022-10-31T07:19:09.654Z,0.08
2022-10-31T07:21:08.850Z,0.08
2022-10-31T07:23:13.872Z,0.08
2022-10-31T07:25:08.693Z,0.08
2022-10-31T07:27:09.154Z,0.08
2022-10-31T07:29:09.856Z,0.08
2022-10-31T07:31:09.178Z,0.08
2022-10-31T07:33:09.242Z,0.08
2022-10-31T07:35:10.262Z,0.08
2022-10-31T07:37:08.979Z,0.08
2022-10-31T07:39:10.272Z,0.08
2022-10-31T07:41:09.008Z,0.08
2022-10-31T07:43:14.004Z,0.08
2022-10-31T07:45:09.619Z,0.08
2022-10-31T07:47:09.243Z,0.08
2022-10-31T07:49:09.708Z,0.08
2022-10-31T07:51:09.503Z,0.08
2022-10-31T07:53:09.729Z,0.08
2022-10-31T07:55:09.591Z,0.08
2022-10-31T07:57:09.111Z,0.08
2022-10-31T07:59:10.024Z,0.08
2022-10-31T08:01:15.792Z,0.08
2022-10-31T08:03:09.840Z,0.08
2022-10-31T08:05:12.887Z,0.08
2022-10-31T08:07:09.250Z,0.08
2022-10-31T08:09:12.343Z,0.08
2022-10-31T08:11:09.837Z,0.08
2022-10-31T08:13:09.225Z,0.08
2022-10-31T08:15:09.284Z,0.08
2022-10-31T08:17:09.580Z,0.08
2022-10-31T08:19:09.801Z,0.08
2022-10-31T08:21:09.763Z,0.08
2022-10-31T08:23:14.802Z,0.08
2022-10-31T08:25:09.052Z,0.08
2022-10-31T08:27:09.335Z,0.08
2022-10-31T08:29:09.938Z,0.08
2022-10-31T08:31:09.425Z,0.08
2022-10-31T08:33:09.161Z,0.08
2022-10-31T08:35:09.583Z,0.08
2022-10-31T08:37:09.104Z,0.08
2022-10-31T08:39:13.570Z,0.08
2022-10-31T08:41:09.502Z,0.08
2022-10-31T08:43:09.745Z,0.08
2022-10-31T08:45:09.133Z,0.08
2022-10-31T08:47:09.055Z,0.08
2022-10-31T08:49:10.200Z,0.08
2022-10-31T08:51:09.621Z,0.08
2022-10-31T08:53:40.018Z,0.08
2022-10-31T08:55:08.979Z,0.08
2022-10-31T08:57:09.648Z,0.08
2022-10-31T08:59:14.162Z,0.08
2022-10-31T09:01:12.078Z,0.08
2022-10-31T09:03:10.243Z,0.08
2022-10-31T09:05:09.188Z,0.08
2022-10-31T09:07:42.462Z,0.08
2022-10-31T09:09:13.422Z,0.08
2022-10-31T09:11:09.574Z,0.08
2022-10-31T09:13:09.249Z,0.08
2022-10-31T09:15:09.673Z,0.08
2022-10-31T09:17:08.777Z,0.08
2022-10-31T09:19:11.579Z,0.08
2022-10-31T09:21:09.023Z,0.08
2022-10-31T09:23:09.321Z,0.08
2022-10-31T09:25:09.107Z,0.08
2022-10-31T09:27:09.369Z,0.08
2022-10-31T09:29:09.781Z,46.78
2022-10-31T09:31:08.980Z,0.36
2022-10-31T09:33:09.689Z,0.36
2022-10-31T09:35:09.361Z,0.08
2022-10-31T09:37:09.288Z,6.93
2022-10-31T09:39:09.704Z,6.93
2022-10-31T09:41:09.343Z,6.93
2022-10-31T09:43:08.897Z,6.93
2022-10-31T09:45:09.240Z,6.93
2022-10-31T09:47:09.696Z,6.93
2022-10-31T09:49:10.345Z,6.93
2022-10-31T09:51:09.256Z,6.93
2022-10-31T09:53:09.766Z,6.93
2022-10-31T09:55:08.994Z,6.93
2022-10-31T09:57:09.216Z,6.93
2022-10-31T09:59:12.916Z,6.93
2022-10-31T10:01:12.339Z,6.93
2022-10-31T10:03:10.355Z,6.93
2022-10-31T10:05:16.839Z,6.93
2022-10-31T10:07:09.292Z,6.93
2022-10-31T10:09:09.162Z,6.93
2022-10-31T10:11:08.966Z,6.93
2022-10-31T10:13:09.883Z,6.93
2022-10-31T10:15:09.595Z,6.93
2022-10-31T10:17:08.854Z,6.93
2022-10-31T10:19:09.038Z,6.93
2022-10-31T10:21:09.923Z,6.93
2022-10-31T10:23:09.935Z,6.93
2022-10-31T10:25:08.691Z,6.93
2022-10-31T10:27:09.226Z,6.93
2022-10-31T10:29:09.630Z,6.93
2022-10-31T10:31:09.415Z,6.93
2022-10-31T10:33:14.803Z,6.93
2022-10-31T10:35:09.095Z,6.93
2022-10-31T10:37:09.454Z,6.93
2022-10-31T10:39:09.481Z,6.93
2022-10-31T10:41:09.476Z,0.15
2022-10-31T10:43:09.049Z,14.07
2022-10-31T10:45:08.919Z,14.07
2022-10-31T10:47:09.405Z,0.04
2022-10-31T10:49:09.631Z,0.04
2022-10-31T10:51:20.311Z,0.04
2022-10-31T10:53:47.377Z,0.02
2022-10-31T10:55:15.350Z,0.02
2022-10-31T10:57:09.594Z,0.02
2022-10-31T10:59:09.873Z,0.02
2022-10-31T11:01:12.973Z,0.02
2022-10-31T11:03:12.383Z,0.02
2022-10-31T11:05:09.594Z,0.01
2022-10-31T11:07:09.334Z,0.01
2022-10-31T11:09:12.754Z,0.01
2022-10-31T11:11:09.491Z,1.31
2022-10-31T11:13:10.284Z,0.01
2022-10-31T11:15:08.899Z,0.01
2022-10-31T11:17:14.975Z,0.01
2022-10-31T11:19:10.418Z,0.01
2022-10-31T11:21:15.379Z,0.01
2022-10-31T11:23:09.174Z,1.15
2022-10-31T11:25:08.968Z,0.01
2022-10-31T11:27:09.004Z,0.01
2022-10-31T11:29:09.902Z,0.01
2022-10-31T11:31:09.736Z,0.01
2022-10-31T11:33:09.889Z,0.01
2022-10-31T11:35:09.490Z,0.01
2022-10-31T11:37:09.322Z,1.06
2022-10-31T11:39:09.477Z,1.06
2022-10-31T11:41:09.125Z,0.01
2022-10-31T11:43:16.345Z,0.01
2022-10-31T11:45:08.940Z,0.01
2022-10-31T11:47:09.691Z,0.01
2022-10-31T11:49:09.425Z,0.99
2022-10-31T11:51:08.909Z,0.99
2022-10-31T11:53:09.002Z,0.01
2022-10-31T11:55:11.088Z,0.01
2022-10-31T11:57:09.246Z,0.01
2022-10-31T11:59:09.503Z,0.01
2022-10-31T12:01:11.830Z,0.96
2022-10-31T12:03:10.521Z,0.96
2022-10-31T12:05:09.697Z,0.01
2022-10-31T12:07:09.297Z,0.96
2022-10-31T12:09:12.558Z,0.96
2022-10-31T12:11:10.036Z,0.01
2022-10-31T12:13:09.754Z,0.95
2022-10-31T12:15:12.159Z,0.95
2022-10-31T12:17:09.216Z,0.01
2022-10-31T12:19:09.449Z,0.01
2022-10-31T12:21:09.382Z,0.01
2022-10-31T12:23:10.811Z,0.01
2022-10-31T12:25:09.818Z,0.01
2022-10-31T12:27:09.288Z,0.01
2022-10-31T12:29:15.026Z,0.92
2022-10-31T12:31:09.449Z,0.01
2022-10-31T12:33:09.508Z,0.01
2022-10-31T12:35:12.025Z,0.01
2022-10-31T12:37:12.064Z,0.01
2022-10-31T12:39:10.220Z,0.01
2022-10-31T12:41:09.558Z,0.01
2022-10-31T12:43:09.421Z,0.92
2022-10-31T12:45:09.403Z,0.92
2022-10-31T12:47:08.945Z,0.93
2022-10-31T12:49:09.768Z,0.01
2022-10-31T12:51:08.791Z,0.01
2022-10-31T12:53:10.134Z,0.96
2022-10-31T12:55:10.739Z,0.01
2022-10-31T12:57:09.620Z,0.01
2022-10-31T12:59:10.034Z,0.01
2022-10-31T13:01:16.302Z,0.01
2022-10-31T13:03:10.102Z,0.01
2022-10-31T13:05:09.617Z,0.01
2022-10-31T13:07:08.857Z,0.01
2022-10-31T13:09:09.947Z,0.01
2022-10-31T13:11:09.534Z,0.9
2022-10-31T13:13:12.050Z,0.01
2022-10-31T13:15:09.487Z,0.01
2022-10-31T13:17:09.240Z,0.01
2022-10-31T13:19:09.392Z,0.89
2022-10-31T13:21:17.316Z,0.89
2022-10-31T13:23:29.847Z,0.01
2022-10-31T13:25:09.081Z,0.89
2022-10-31T13:27:10.988Z,0.89
2022-10-31T13:29:09.672Z,0.89
2022-10-31T13:31:09.795Z,0.01
2022-10-31T13:33:09.240Z,0.01
2022-10-31T13:35:09.181Z,0.01
2022-10-31T13:37:08.978Z,0.89
2022-10-31T13:39:09.630Z,0.89
2022-10-31T13:41:09.187Z,0.87
2022-10-31T13:43:09.828Z,0.01
2022-10-31T13:45:12.354Z,0.01
2022-10-31T13:47:08.885Z,0.87
2022-10-31T13:49:09.762Z,0.87
2022-10-31T13:51:15.361Z,0.87
2022-10-31T13:53:09.496Z,0.85
2022-10-31T13:55:08.827Z,0.85
2022-10-31T13:57:08.959Z,0.85
2022-10-31T13:59:09.506Z,0.84
2022-10-31T14:01:12.729Z,0.01
2022-10-31T14:03:10.408Z,0.01
2022-10-31T14:05:26.381Z,0.01
2022-10-31T14:07:09.046Z,0.01
2022-10-31T14:09:09.430Z,0.01
2022-10-31T14:11:09.971Z,0.01
2022-10-31T14:13:09.249Z,0.01
2022-10-31T14:15:09.521Z,0.01
2022-10-31T14:17:11.515Z,0.01
2022-10-31T14:19:09.660Z,0.81
2022-10-31T14:21:09.061Z,0.81
2022-10-31T14:23:13.940Z,0.01
2022-10-31T14:25:09.602Z,0.01
2022-10-31T14:27:09.443Z,0.01
2022-10-31T14:29:10.254Z,0.78
2022-10-31T14:31:09.056Z,0.78
2022-10-31T14:33:09.141Z,0.78
2022-10-31T14:35:09.696Z,0.78
2022-10-31T14:37:16.032Z,0.01
2022-10-31T14:39:10.320Z,0.01
2022-10-31T14:41:09.553Z,0.01
2022-10-31T14:43:09.538Z,0.01
2022-10-31T14:45:09.125Z,0.01
2022-10-31T14:47:09.758Z,0.01
2022-10-31T14:49:15.561Z,0.01
2022-10-31T14:51:09.520Z,0.01
2022-10-31T14:53:10.039Z,0.01
2022-10-31T14:55:09.220Z,0.01
2022-10-31T14:57:14.574Z,0.01
2022-10-31T14:59:09.665Z,0.01
2022-10-31T15:01:12.537Z,0.01
2022-10-31T15:03:10.292Z,0.01
2022-10-31T15:05:31.550Z,0.01
2022-10-31T15:07:08.833Z,0.01
2022-10-31T15:09:09.079Z,0.01
2022-10-31T15:11:09.432Z,0.01
2022-10-31T15:13:09.727Z,0.01
2022-10-31T15:15:09.800Z,0.01
2022-10-31T15:17:09.073Z,0.01
2022-10-31T15:19:09.956Z,0.01
2022-10-31T15:21:12.354Z,0.01
2022-10-31T15:23:09.740Z,0.01
2022-10-31T15:25:09.356Z,0.01
2022-10-31T15:27:16.065Z,0.01
2022-10-31T15:29:09.516Z,0.01
2022-10-31T15:31:09.644Z,0.01
2022-10-31T15:33:20.562Z,0.01
2022-10-31T15:35:09.277Z,0.01
2022-10-31T15:37:14.270Z,0.01
2022-10-31T15:39:09.610Z,0.01
2022-10-31T15:41:09.398Z,0.01
2022-10-31T15:43:09.878Z,0.01
2022-10-31T15:45:08.979Z,0.01
2022-10-31T15:47:13.183Z,0.01
2022-10-31T15:49:10.318Z,0.01
2022-10-31T15:51:09.196Z,0.01
2022-10-31T15:53:11.681Z,0.01
2022-10-31T15:55:09.094Z,0.01
2022-10-31T15:57:08.830Z,0.01
2022-10-31T15:59:09.521Z,0.01
2022-10-31T16:01:14.092Z,0.01
2022-10-31T16:03:11.728Z,0.01
2022-10-31T16:05:09.753Z,0.01
2022-10-31T16:07:09.768Z,0.01
2022-10-31T16:09:09.221Z,0.01
2022-10-31T16:11:09.183Z,0.01
2022-10-31T16:13:09.682Z,0.01
2022-10-31T16:15:10.961Z,0.01
2022-10-31T16:17:41.887Z,0.01
2022-10-31T16:19:09.505Z,0.01
2022-10-31T16:21:09.073Z,0.01
2022-10-31T16:23:10.075Z,0.01
2022-10-31T16:25:13.710Z,0.01
2022-10-31T16:27:09.126Z,0.01
2022-10-31T16:29:27.476Z,0.01
2022-10-31T16:31:11.270Z,0.01
2022-10-31T16:33:10.221Z,0.01
2022-10-31T16:35:12.172Z,0.01
2022-10-31T16:37:32.115Z,0.01
2022-10-31T16:39:09.645Z,0.01
2022-10-31T16:41:09.632Z,0.01
2022-10-31T16:43:10.293Z,0.01
2022-10-31T16:45:09.348Z,0.01
2022-10-31T16:47:09.327Z,0.01
2022-10-31T16:49:09.629Z,0.01
2022-10-31T16:51:08.803Z,0.01
2022-10-31T16:53:40.602Z,0.01
2022-10-31T16:55:09.105Z,0.01
2022-10-31T16:57:09.215Z,0.01
2022-10-31T16:59:15.690Z,0.01
2022-10-31T17:01:12.433Z,0.08
2022-10-31T17:03:10.361Z,0.08
2022-10-31T17:05:14.758Z,0.08
2022-10-31T17:07:09.102Z,2.62
2022-10-31T17:09:09.892Z,2.62
2022-10-31T17:11:08.798Z,2.62
2022-10-31T17:13:09.173Z,0.02
2022-10-31T17:15:09.486Z,0.02
2022-10-31T17:17:09.424Z,0.02
2022-10-31T17:19:12.955Z,0.02
2022-10-31T17:21:09.496Z,0.02
2022-10-31T17:23:09.552Z,0.02
2022-10-31T17:25:09.506Z,0.02
2022-10-31T17:27:09.583Z,0.02
2022-10-31T17:29:09.574Z,0.02
2022-10-31T17:31:09.685Z,0.02
2022-10-31T17:33:09.513Z,0.02
2022-10-31T17:35:11.143Z,0.02
2022-10-31T17:37:08.843Z,0.02
2022-10-31T17:39:09.382Z,0.02
2022-10-31T17:41:11.244Z,0.02
2022-10-31T17:43:09.768Z,0.02
2022-10-31T17:45:09.084Z,0.02
2022-10-31T17:47:09.081Z,0.02
2022-10-31T17:49:08.909Z,0.02
2022-10-31T17:51:09.494Z,0.02
2022-10-31T17:53:09.536Z,0.02
2022-10-31T17:55:09.258Z,0.02
2022-10-31T17:57:09.126Z,0.02
2022-10-31T17:59:09.287Z,0.02
2022-10-31T18:01:14.252Z,0.02
2022-10-31T18:03:11.349Z,0.02
2022-10-31T18:05:09.183Z,0.02
2022-10-31T18:07:09.897Z,0.02
2022-10-31T18:09:12.104Z,0.02
2022-10-31T18:11:09.059Z,0.02
2022-10-31T18:13:10.259Z,0.02
2022-10-31T18:15:11.370Z,0.02
2022-10-31T18:17:09.913Z,0.02
2022-10-31T18:19:10.391Z,5.47
2022-10-31T18:21:09.020Z,5.7
2022-10-31T18:23:09.283Z,5.7
2022-10-31T18:25:13.595Z,5.7
2022-10-31T18:27:08.865Z,5.7
2022-10-31T18:29:09.805Z,5.7
2022-10-31T18:31:09.069Z,5.7
2022-10-31T18:33:16.608Z,5.7
2022-10-31T18:35:09.557Z,5.7
2022-10-31T18:37:08.904Z,5.7
2022-10-31T18:39:10.950Z,5.7
2022-10-31T18:41:09.078Z,5.7
2022-10-31T18:43:09.340Z,5.7
2022-10-31T18:45:32.666Z,5.7
2022-10-31T18:47:09.045Z,5.7
2022-10-31T18:49:09.675Z,5.7
2022-10-31T18:51:09.609Z,5.7
2022-10-31T18:53:09.187Z,5.7
2022-10-31T18:55:09.737Z,5.7
2022-10-31T18:57:09.665Z,5.7
2022-10-31T18:59:09.480Z,5.7
2022-10-31T19:01:12.086Z,5.7
2022-10-31T19:03:10.374Z,5.7
2022-10-31T19:05:09.725Z,5.7
2022-10-31T19:07:08.941Z,5.7
2022-10-31T19:09:09.733Z,5.7
2022-10-31T19:11:08.924Z,5.7
2022-10-31T19:13:09.931Z,5.7
2022-10-31T19:15:09.116Z,5.7
2022-10-31T19:17:13.828Z,5.7
2022-10-31T19:19:08.812Z,5.7
2022-10-31T19:21:09.291Z,5.7
2022-10-31T19:23:09.893Z,5.7
2022-10-31T19:25:10.975Z,5.7
2022-10-31T19:27:08.876Z,5.7
2022-10-31T19:29:09.986Z,5.7
2022-10-31T19:31:08.935Z,5.7
2022-10-31T19:33:09.092Z,5.7
2022-10-31T19:35:09.637Z,5.7
2022-10-31T19:37:09.400Z,5.7
2022-10-31T19:39:10.480Z,5.7
2022-10-31T19:41:09.426Z,5.7
2022-10-31T19:43:09.076Z,5.7
2022-10-31T19:45:12.446Z,5.7
2022-10-31T19:47:38.934Z,5.7
2022-10-31T19:49:09.224Z,5.7
2022-10-31T19:51:10.000Z,5.7
2022-10-31T19:53:09.247Z,5.7
2022-10-31T19:55:08.796Z,5.7
2022-10-31T19:57:08.975Z,5.7
2022-10-31T19:59:19.217Z,5.7
2022-10-31T20:01:12.273Z,5.7
2022-10-31T20:03:09.316Z,5.7
2022-10-31T20:05:08.825Z,5.7
2022-10-31T20:07:09.588Z,5.7
2022-10-31T20:09:13.425Z,5.7
2022-10-31T20:11:09.319Z,5.7
2022-10-31T20:13:08.817Z,5.7
2022-10-31T20:15:09.178Z,5.7
2022-10-31T20:17:09.411Z,5.7
2022-10-31T20:19:10.615Z,5.7
2022-10-31T20:21:13.421Z,5.7
2022-10-31T20:23:10.025Z,5.7
2022-10-31T20:25:09.711Z,5.7
2022-10-31T20:27:08.698Z,5.7
2022-10-31T20:29:16.873Z,5.7
2022-10-31T20:31:09.754Z,5.7
2022-10-31T20:33:12.996Z,5.7
2022-10-31T20:35:08.848Z,5.7
2022-10-31T20:37:09.128Z,5.7
2022-10-31T20:39:10.504Z,5.7
2022-10-31T20:41:09.611Z,5.7
2022-10-31T20:43:09.183Z,5.7
2022-10-31T20:45:09.758Z,5.7
2022-10-31T20:47:09.759Z,5.7
2022-10-31T20:49:09.436Z,5.7
2022-10-31T20:51:09.378Z,5.7
2022-10-31T20:53:09.512Z,5.7
2022-10-31T20:55:09.073Z,5.7
2022-10-31T20:57:15.120Z,5.7
2022-10-31T20:59:09.452Z,5.7
2022-10-31T21:01:12.790Z,5.7
2022-10-31T21:03:10.648Z,5.7
2022-10-31T21:05:09.441Z,5.7
2022-10-31T21:07:12.255Z,5.7
2022-10-31T21:09:09.275Z,5.7
2022-10-31T21:11:08.995Z,5.7
2022-10-31T21:13:09.988Z,5.7
2022-10-31T21:15:09.417Z,5.7
2022-10-31T21:17:09.126Z,5.7
2022-10-31T21:19:09.519Z,5.7
2022-10-31T21:21:09.370Z,5.7
2022-10-31T21:23:09.664Z,5.7
2022-10-31T21:25:08.942Z,5.7
2022-10-31T21:27:11.628Z,5.7
2022-10-31T21:29:10.547Z,5.7
2022-10-31T21:31:08.996Z,5.7
2022-10-31T21:33:09.608Z,5.7
2022-10-31T21:35:09.686Z,5.7
2022-10-31T21:37:09.213Z,5.7
2022-10-31T21:39:09.923Z,5.7
2022-10-31T21:41:09.082Z,5.7
2022-10-31T21:43:16.606Z,5.7
2022-10-31T21:45:09.397Z,5.7
2022-10-31T21:47:09.548Z,5.7
2022-10-31T21:49:09.188Z,5.7
2022-10-31T21:51:08.729Z,5.7
2022-10-31T21:53:09.126Z,5.7
2022-10-31T21:55:09.543Z,5.7
2022-10-31T21:57:09.161Z,5.7
2022-10-31T21:59:12.498Z,5.7
2022-10-31T22:01:14.233Z,5.7
2022-10-31T22:03:09.401Z,5.7
2022-10-31T22:05:09.406Z,5.7
2022-10-31T22:07:08.882Z,5.7
2022-10-31T22:09:10.350Z,5.7
2022-10-31T22:11:08.827Z,5.7
2022-10-31T22:13:09.128Z,5.7
2022-10-31T22:15:09.527Z,5.7
2022-10-31T22:17:09.323Z,5.7
2022-10-31T22:19:09.326Z,5.7
2022-10-31T22:21:09.204Z,5.7
2022-10-31T22:23:09.507Z,5.7
2022-10-31T22:25:12.715Z,5.7
2022-10-31T22:27:09.276Z,5.7
2022-10-31T22:29:10.274Z,5.7
2022-10-31T22:31:09.359Z,5.7
2022-10-31T22:33:10.056Z,5.7
2022-10-31T22:35:09.105Z,5.7
2022-10-31T22:37:09.887Z,5.7
2022-10-31T22:39:09.300Z,5.7
2022-10-31T22:41:08.987Z,5.7
2022-10-31T22:43:09.966Z,5.7
2022-10-31T22:45:08.936Z,5.7
2022-10-31T22:47:09.357Z,5.7
2022-10-31T22:49:10.041Z,5.7
2022-10-31T22:51:08.893Z,5.7
2022-10-31T22:53:09.563Z,5.7
2022-10-31T22:55:10.673Z,5.7
2022-10-31T22:57:08.794Z,5.7
2022-10-31T22:59:10.065Z,5.7
2022-10-31T23:01:20.949Z,5.7
2022-10-31T23:03:10.448Z,5.7
2022-10-31T23:05:09.575Z,5.7
2022-10-31T23:07:12.337Z,5.7
2022-10-31T23:09:09.678Z,5.7
2022-10-31T23:11:09.171Z,5.7
2022-10-31T23:13:08.954Z,5.7
2022-10-31T23:15:08.820Z,5.7
2022-10-31T23:17:09.404Z,5.7
2022-10-31T23:19:35.536Z,5.7
2022-10-31T23:21:09.699Z,5.7
2022-10-31T23:23:09.442Z,5.7
2022-10-31T23:25:09.687Z,5.7
2022-10-31T23:27:09.601Z,5.7
2022-10-31T23:29:08.827Z,5.7
2022-10-31T23:31:09.270Z,5.7
2022-10-31T23:33:09.315Z,5.7
2022-10-31T23:35:09.361Z,5.7
2022-10-31T23:37:08.995Z,5.7
2022-10-31T23:39:10.183Z,5.7
2022-10-31T23:41:09.093Z,5.7
2022-10-31T23:43:08.819Z,5.7
2022-10-31T23:45:09.301Z,5.7
2022-10-31T23:47:09.528Z,5.7
2022-10-31T23:49:10.157Z,5.7
2022-10-31T23:51:09.285Z,5.7
2022-10-31T23:53:09.480Z,5.7
2022-10-31T23:55:09.152Z,5.7
2022-10-31T23:57:08.987Z,5.7
2022-10-31T23:59:09.755Z,5.7
